sensor_id;sensor_type;location;lat;lon;timestamp;pressure;altitude;pressure_sealevel;temperature;humidity
9969;BME280;5025;48.890;9.278;2023-02-01T00:01:18;99473.50;;;3.89;83.14
9969;BME280;5025;48.890;9.278;2023-02-01T00:03:44;99466.47;;;3.88;83.07
9969;BME280;5025;48.890;9.278;2023-02-01T00:06:09;99470.34;;;3.86;83.34
9969;BME280;5025;48.890;9.278;2023-02-01T00:08:34;99465.00;;;3.86;83.27
9969;BME280;5025;48.890;9.278;2023-02-01T00:11:08;99461.13;;;3.88;83.29
9969;BME280;5025;48.890;9.278;2023-02-01T00:13:36;99469.47;;;3.85;83.30
9969;BME280;5025;48.890;9.278;2023-02-01T00:16:08;99468.00;;;3.83;83.42
9969;BME280;5025;48.890;9.278;2023-02-01T00:18:34;99463.66;;;3.82;83.74
9969;BME280;5025;48.890;9.278;2023-02-01T00:20:59;99460.97;;;3.90;83.57
9969;BME280;5025;48.890;9.278;2023-02-01T00:23:25;99443.94;;;3.91;83.30
9969;BME280;5025;48.890;9.278;2023-02-01T00:25:51;99447.94;;;3.95;83.29
9969;BME280;5025;48.890;9.278;2023-02-01T00:28:16;99439.72;;;3.97;83.13
9969;BME280;5025;48.890;9.278;2023-02-01T00:30:41;99452.94;;;3.98;82.92
9969;BME280;5025;48.890;9.278;2023-02-01T00:33:07;99454.59;;;3.99;82.80
9969;BME280;5025;48.890;9.278;2023-02-01T00:35:34;99456.47;;;3.90;82.98
9969;BME280;5025;48.890;9.278;2023-02-01T00:37:59;99451.78;;;3.92;83.08
9969;BME280;5025;48.890;9.278;2023-02-01T00:40:25;99450.28;;;3.90;83.30
9969;BME280;5025;48.890;9.278;2023-02-01T00:42:50;99449.13;;;3.92;83.07
9969;BME280;5025;48.890;9.278;2023-02-01T00:45:16;99452.59;;;3.93;83.13
9969;BME280;5025;48.890;9.278;2023-02-01T00:47:41;99440.94;;;3.94;83.13
9969;BME280;5025;48.890;9.278;2023-02-01T00:50:07;99441.75;;;3.94;83.30
9969;BME280;5025;48.890;9.278;2023-02-01T00:52:32;99428.56;;;3.93;83.10
9969;BME280;5025;48.890;9.278;2023-02-01T00:54:58;99412.53;;;3.93;83.23
9969;BME280;5025;48.890;9.278;2023-02-01T00:57:23;99403.19;;;3.97;83.12
9969;BME280;5025;48.890;9.278;2023-02-01T00:59:48;99396.81;;;3.98;82.98
9969;BME280;5025;48.890;9.278;2023-02-01T01:02:14;99391.47;;;3.98;82.88
9969;BME280;5025;48.890;9.278;2023-02-01T01:04:39;99387.19;;;3.89;83.22
9969;BME280;5025;48.890;9.278;2023-02-01T01:07:05;99386.16;;;3.90;83.11
9969;BME280;5025;48.890;9.278;2023-02-01T01:09:30;99387.16;;;3.81;83.56
9969;BME280;5025;48.890;9.278;2023-02-01T01:11:55;99379.16;;;3.81;83.65
9969;BME280;5025;48.890;9.278;2023-02-01T01:14:21;99382.50;;;3.83;83.53
9969;BME280;5025;48.890;9.278;2023-02-01T01:16:46;99380.53;;;3.76;83.60
9969;BME280;5025;48.890;9.278;2023-02-01T01:19:11;99387.38;;;3.71;84.02
9969;BME280;5025;48.890;9.278;2023-02-01T01:21:36;99398.03;;;3.79;83.81
9969;BME280;5025;48.890;9.278;2023-02-01T01:24:02;99400.03;;;3.77;83.72
9969;BME280;5025;48.890;9.278;2023-02-01T01:26:28;99390.53;;;3.74;83.76
9969;BME280;5025;48.890;9.278;2023-02-01T01:28:55;99401.53;;;3.71;84.05
9969;BME280;5025;48.890;9.278;2023-02-01T01:31:21;99405.91;;;3.72;84.25
9969;BME280;5025;48.890;9.278;2023-02-01T01:33:50;99412.91;;;3.65;84.19
9969;BME280;5025;48.890;9.278;2023-02-01T01:36:16;99417.91;;;3.68;84.46
9969;BME280;5025;48.890;9.278;2023-02-01T01:38:41;99408.41;;;3.74;84.49
9969;BME280;5025;48.890;9.278;2023-02-01T01:41:08;99423.59;;;3.73;84.42
9969;BME280;5025;48.890;9.278;2023-02-01T01:46:26;99417.22;;;3.74;84.40
9969;BME280;5025;48.890;9.278;2023-02-01T01:51:25;99422.41;;;3.84;84.20
9969;BME280;5025;48.890;9.278;2023-02-01T01:54:02;99416.22;;;3.84;84.04
9969;BME280;5025;48.890;9.278;2023-02-01T01:56:32;99406.72;;;3.81;83.93
9969;BME280;5025;48.890;9.278;2023-02-01T01:58:59;99407.22;;;3.76;84.12
9969;BME280;5025;48.890;9.278;2023-02-01T02:01:25;99411.56;;;3.77;84.22
9969;BME280;5025;48.890;9.278;2023-02-01T02:03:51;99405.53;;;3.84;84.21
9969;BME280;5025;48.890;9.278;2023-02-01T02:09:05;99396.50;;;3.93;83.56
9969;BME280;5025;48.890;9.278;2023-02-01T02:11:31;99399.34;;;3.91;83.63
9969;BME280;5025;48.890;9.278;2023-02-01T02:13:57;99395.84;;;3.91;83.36
9969;BME280;5025;48.890;9.278;2023-02-01T02:16:52;99386.66;;;3.93;83.24
9969;BME280;5025;48.890;9.278;2023-02-01T02:19:47;99387.31;;;3.95;83.31
9969;BME280;5025;48.890;9.278;2023-02-01T02:27:55;99390.78;;;4.04;82.75
9969;BME280;5025;48.890;9.278;2023-02-01T02:41:18;99407.47;;;4.15;81.99
9969;BME280;5025;48.890;9.278;2023-02-01T02:47:13;99392.13;;;4.08;82.54
9969;BME280;5025;48.890;9.278;2023-02-01T02:50:04;99376.59;;;4.04;82.04
9969;BME280;5025;48.890;9.278;2023-02-01T02:53:00;99386.63;;;4.02;82.26
9969;BME280;5025;48.890;9.278;2023-02-01T02:55:45;99389.47;;;4.00;82.35
9969;BME280;5025;48.890;9.278;2023-02-01T02:58:12;99388.28;;;4.03;82.18
9969;BME280;5025;48.890;9.278;2023-02-01T03:00:57;99392.31;;;3.99;82.30
9969;BME280;5025;48.890;9.278;2023-02-01T03:03:42;99385.13;;;3.99;82.35
9969;BME280;5025;48.890;9.278;2023-02-01T03:06:26;99386.28;;;4.05;82.13
9969;BME280;5025;48.890;9.278;2023-02-01T03:08:53;99383.28;;;4.08;82.08
9969;BME280;5025;48.890;9.278;2023-02-01T03:11:22;99376.91;;;4.09;81.90
9969;BME280;5025;48.890;9.278;2023-02-01T03:13:52;99376.91;;;4.09;81.95
9969;BME280;5025;48.890;9.278;2023-02-01T03:16:23;99369.41;;;4.04;81.96
9969;BME280;5025;48.890;9.278;2023-02-01T03:23:53;99328.31;;;4.05;82.01
9969;BME280;5025;48.890;9.278;2023-02-01T03:26:20;99328.97;;;4.07;82.02
9969;BME280;5025;48.890;9.278;2023-02-01T03:28:55;99323.16;;;4.04;81.89
9969;BME280;5025;48.890;9.278;2023-02-01T03:31:22;99325.34;;;4.00;82.19
9969;BME280;5025;48.890;9.278;2023-02-01T03:33:47;99325.00;;;4.03;81.99
9969;BME280;5025;48.890;9.278;2023-02-01T03:36:26;99323.31;;;4.02;82.08
9969;BME280;5025;48.890;9.278;2023-02-01T03:39:11;99313.31;;;3.96;82.46
9969;BME280;5025;48.890;9.278;2023-02-01T03:41:42;99326.97;;;4.01;82.57
9969;BME280;5025;48.890;9.278;2023-02-01T03:44:16;99324.00;;;3.96;82.57
9969;BME280;5025;48.890;9.278;2023-02-01T03:49:34;99332.69;;;3.98;82.82
9969;BME280;5025;48.890;9.278;2023-02-01T03:52:01;99324.81;;;3.97;82.85
9969;BME280;5025;48.890;9.278;2023-02-01T03:54:28;99329.47;;;4.03;82.69
9969;BME280;5025;48.890;9.278;2023-02-01T03:56:56;99327.78;;;4.10;82.42
9969;BME280;5025;48.890;9.278;2023-02-01T03:59:24;99342.66;;;4.04;82.48
9969;BME280;5025;48.890;9.278;2023-02-01T04:01:49;99348.38;;;4.01;82.67
9969;BME280;5025;48.890;9.278;2023-02-01T04:04:16;99341.34;;;4.08;82.80
9969;BME280;5025;48.890;9.278;2023-02-01T04:06:48;99345.16;;;4.14;82.60
9969;BME280;5025;48.890;9.278;2023-02-01T04:09:14;99346.63;;;4.17;82.35
9969;BME280;5025;48.890;9.278;2023-02-01T04:11:39;99333.59;;;4.22;81.97
9969;BME280;5025;48.890;9.278;2023-02-01T04:14:04;99324.38;;;4.24;82.17
9969;BME280;5025;48.890;9.278;2023-02-01T04:16:31;99308.16;;;4.26;81.93
9969;BME280;5025;48.890;9.278;2023-02-01T04:18:57;99309.19;;;4.25;81.93
9969;BME280;5025;48.890;9.278;2023-02-01T04:21:23;99307.16;;;4.27;81.91
9969;BME280;5025;48.890;9.278;2023-02-01T04:23:51;99320.72;;;4.25;81.91
9969;BME280;5025;48.890;9.278;2023-02-01T04:26:16;99321.72;;;4.24;81.83
9969;BME280;5025;48.890;9.278;2023-02-01T04:28:42;99312.91;;;4.16;82.03
9969;BME280;5025;48.890;9.278;2023-02-01T04:31:07;99325.25;;;4.17;82.27
9969;BME280;5025;48.890;9.278;2023-02-01T04:33:32;99330.28;;;4.11;82.44
9969;BME280;5025;48.890;9.278;2023-02-01T04:35:58;99323.63;;;4.07;82.86
9969;BME280;5025;48.890;9.278;2023-02-01T04:38:23;99338.31;;;4.11;82.93
9969;BME280;5025;48.890;9.278;2023-02-01T04:40:48;99325.28;;;4.08;82.97
9969;BME280;5025;48.890;9.278;2023-02-01T04:43:15;99322.63;;;4.08;82.93
9969;BME280;5025;48.890;9.278;2023-02-01T04:45:40;99322.84;;;3.99;83.09
9969;BME280;5025;48.890;9.278;2023-02-01T04:48:06;99319.31;;;3.98;83.48
9969;BME280;5025;48.890;9.278;2023-02-01T04:50:31;99321.34;;;3.96;83.57
9969;BME280;5025;48.890;9.278;2023-02-01T04:52:56;99311.63;;;4.03;83.76
9969;BME280;5025;48.890;9.278;2023-02-01T04:55:22;99314.59;;;4.08;83.39
9969;BME280;5025;48.890;9.278;2023-02-01T04:57:47;99298.56;;;4.08;83.32
9969;BME280;5025;48.890;9.278;2023-02-01T05:00:12;99284.38;;;4.08;83.32
9969;BME280;5025;48.890;9.278;2023-02-01T05:02:38;99295.06;;;4.08;83.27
9969;BME280;5025;48.890;9.278;2023-02-01T05:05:04;99316.47;;;4.08;83.32
9969;BME280;5025;48.890;9.278;2023-02-01T05:07:29;99319.31;;;4.06;83.55
9969;BME280;5025;48.890;9.278;2023-02-01T05:09:55;99322.16;;;4.05;83.98
9969;BME280;5025;48.890;9.278;2023-02-01T05:12:20;99307.09;;;4.04;83.55
9969;BME280;5025;48.890;9.278;2023-02-01T05:15:04;99307.56;;;4.16;83.44
9969;BME280;5025;48.890;9.278;2023-02-01T05:17:29;99324.56;;;4.23;83.11
9969;BME280;5025;48.890;9.278;2023-02-01T05:19:55;99319.38;;;4.29;82.76
9969;BME280;5025;48.890;9.278;2023-02-01T05:22:20;99313.50;;;4.26;82.74
9969;BME280;5025;48.890;9.278;2023-02-01T05:24:45;99307.53;;;4.24;82.26
9969;BME280;5025;48.890;9.278;2023-02-01T05:27:11;99314.72;;;4.23;82.55
9969;BME280;5025;48.890;9.278;2023-02-01T05:29:36;99310.72;;;4.19;82.41
9969;BME280;5025;48.890;9.278;2023-02-01T05:32:01;99303.88;;;4.17;82.65
9969;BME280;5025;48.890;9.278;2023-02-01T05:34:26;99315.94;;;4.12;83.15
9969;BME280;5025;48.890;9.278;2023-02-01T05:36:52;99300.25;;;4.09;84.01
9969;BME280;5025;48.890;9.278;2023-02-01T05:39:17;99291.34;;;4.17;83.95
9969;BME280;5025;48.890;9.278;2023-02-01T05:41:42;99321.19;;;4.29;83.60
9969;BME280;5025;48.890;9.278;2023-02-01T05:44:08;99306.13;;;4.36;82.90
9969;BME280;5025;48.890;9.278;2023-02-01T05:46:34;99318.50;;;4.37;82.33
9969;BME280;5025;48.890;9.278;2023-02-01T05:49:00;99319.13;;;4.39;82.13
9969;BME280;5025;48.890;9.278;2023-02-01T05:51:25;99326.94;;;4.49;81.91
9969;BME280;5025;48.890;9.278;2023-02-01T05:53:50;99308.44;;;4.39;81.73
9969;BME280;5025;48.890;9.278;2023-02-01T05:56:15;99332.50;;;4.39;81.80
9969;BME280;5025;48.890;9.278;2023-02-01T05:58:41;99332.50;;;4.39;81.69
9969;BME280;5025;48.890;9.278;2023-02-01T06:01:06;99324.97;;;4.43;81.52
9969;BME280;5025;48.890;9.278;2023-02-01T06:03:31;99348.31;;;4.49;81.26
9969;BME280;5025;48.890;9.278;2023-02-01T06:05:57;99343.50;;;4.44;80.88
9969;BME280;5025;48.890;9.278;2023-02-01T06:08:22;99328.78;;;4.48;80.88
9969;BME280;5025;48.890;9.278;2023-02-01T06:10:50;99332.84;;;4.36;80.94
9969;BME280;5025;48.890;9.278;2023-02-01T06:13:15;99326.34;;;4.30;81.35
9969;BME280;5025;48.890;9.278;2023-02-01T06:15:41;99354.47;;;4.26;81.75
9969;BME280;5025;48.890;9.278;2023-02-01T06:18:09;99355.13;;;4.28;81.88
9969;BME280;5025;48.890;9.278;2023-02-01T06:20:34;99358.25;;;4.32;81.68
9969;BME280;5025;48.890;9.278;2023-02-01T06:22:59;99352.91;;;4.32;82.20
9969;BME280;5025;48.890;9.278;2023-02-01T06:25:25;99347.41;;;4.34;82.28
9969;BME280;5025;48.890;9.278;2023-02-01T06:27:50;99343.22;;;4.39;82.25
9969;BME280;5025;48.890;9.278;2023-02-01T06:30:15;99352.91;;;4.40;82.38
9969;BME280;5025;48.890;9.278;2023-02-01T06:32:42;99355.22;;;4.43;82.32
9969;BME280;5025;48.890;9.278;2023-02-01T06:35:08;99336.97;;;4.47;82.28
9969;BME280;5025;48.890;9.278;2023-02-01T06:37:37;99354.88;;;4.46;82.20
9969;BME280;5025;48.890;9.278;2023-02-01T06:40:03;99337.81;;;4.47;82.42
9969;BME280;5025;48.890;9.278;2023-02-01T06:42:28;99342.50;;;4.45;82.60
9969;BME280;5025;48.890;9.278;2023-02-01T06:44:53;99338.66;;;4.48;82.70
9969;BME280;5025;48.890;9.278;2023-02-01T06:47:19;99337.16;;;4.45;82.72
9969;BME280;5025;48.890;9.278;2023-02-01T06:49:44;99350.81;;;4.51;82.80
9969;BME280;5025;48.890;9.278;2023-02-01T06:52:09;99350.19;;;4.48;82.67
9969;BME280;5025;48.890;9.278;2023-02-01T06:54:34;99353.16;;;4.54;82.69
9969;BME280;5025;48.890;9.278;2023-02-01T06:57:02;99366.53;;;4.54;82.63
9969;BME280;5025;48.890;9.278;2023-02-01T06:59:27;99368.31;;;4.61;82.49
9969;BME280;5025;48.890;9.278;2023-02-01T07:01:53;99386.22;;;4.61;82.18
9969;BME280;5025;48.890;9.278;2023-02-01T07:04:18;99356.16;;;4.59;82.00
9969;BME280;5025;48.890;9.278;2023-02-01T07:06:43;99372.19;;;4.59;81.94
9969;BME280;5025;48.890;9.278;2023-02-01T07:09:09;99368.16;;;4.63;81.95
9969;BME280;5025;48.890;9.278;2023-02-01T07:11:34;99369.81;;;4.64;81.75
9969;BME280;5025;48.890;9.278;2023-02-01T07:13:59;99385.06;;;4.63;81.30
9969;BME280;5025;48.890;9.278;2023-02-01T07:16:25;99394.06;;;4.62;81.33
9969;BME280;5025;48.890;9.278;2023-02-01T07:18:51;99399.41;;;4.62;81.01
9969;BME280;5025;48.890;9.278;2023-02-01T07:21:17;99405.25;;;4.66;80.83
9969;BME280;5025;48.890;9.278;2023-02-01T07:23:42;99398.53;;;4.70;80.25
9969;BME280;5025;48.890;9.278;2023-02-01T07:26:10;99404.53;;;4.72;80.00
9969;BME280;5025;48.890;9.278;2023-02-01T07:28:37;99393.66;;;4.74;79.97
9969;BME280;5025;48.890;9.278;2023-02-01T07:31:11;99395.53;;;4.73;80.37
9969;BME280;5025;48.890;9.278;2023-02-01T07:33:37;99401.69;;;4.74;80.45
9969;BME280;5025;48.890;9.278;2023-02-01T07:36:05;99395.53;;;4.73;79.65
9969;BME280;5025;48.890;9.278;2023-02-01T07:38:31;99399.19;;;4.72;79.95
9969;BME280;5025;48.890;9.278;2023-02-01T07:40:58;99399.88;;;4.74;80.39
9969;BME280;5025;48.890;9.278;2023-02-01T07:43:24;99404.72;;;4.71;80.51
9969;BME280;5025;48.890;9.278;2023-02-01T07:45:51;99403.06;;;4.70;80.73
9969;BME280;5025;48.890;9.278;2023-02-01T07:48:17;99404.53;;;4.72;80.23
9969;BME280;5025;48.890;9.278;2023-02-01T07:50:43;99394.69;;;4.73;80.19
9969;BME280;5025;48.890;9.278;2023-02-01T07:53:08;99395.16;;;4.76;79.91
9969;BME280;5025;48.890;9.278;2023-02-01T07:55:33;99398.84;;;4.75;79.95
9969;BME280;5025;48.890;9.278;2023-02-01T07:57:59;99398.03;;;4.75;79.81
9969;BME280;5025;48.890;9.278;2023-02-01T08:00:26;99405.56;;;4.71;79.59
9969;BME280;5025;48.890;9.278;2023-02-01T08:03:10;99396.34;;;4.74;79.70
9969;BME280;5025;48.890;9.278;2023-02-01T08:05:35;99396.50;;;4.80;79.56
9969;BME280;5025;48.890;9.278;2023-02-01T08:08:02;99390.97;;;4.82;79.64
9969;BME280;5025;48.890;9.278;2023-02-01T08:10:27;99392.31;;;4.78;79.82
9969;BME280;5025;48.890;9.278;2023-02-01T08:12:57;99385.78;;;4.80;79.83
9969;BME280;5025;48.890;9.278;2023-02-01T08:15:23;99393.31;;;4.77;79.89
9969;BME280;5025;48.890;9.278;2023-02-01T08:17:50;99390.00;;;4.75;79.75
9969;BME280;5025;48.890;9.278;2023-02-01T08:20:16;99382.94;;;4.82;79.28
9969;BME280;5025;48.890;9.278;2023-02-01T08:22:42;99393.28;;;4.85;78.92
9969;BME280;5025;48.890;9.278;2023-02-01T08:25:08;99386.91;;;4.86;78.70
9969;BME280;5025;48.890;9.278;2023-02-01T08:27:33;99370.66;;;4.88;78.71
9969;BME280;5025;48.890;9.278;2023-02-01T08:29:59;99398.28;;;4.88;78.30
9969;BME280;5025;48.890;9.278;2023-02-01T08:32:25;99391.56;;;4.92;78.22
9969;BME280;5025;48.890;9.278;2023-02-01T08:34:51;99408.47;;;4.93;77.81
9969;BME280;5025;48.890;9.278;2023-02-01T08:37:16;99409.75;;;4.97;77.77
9969;BME280;5025;48.890;9.278;2023-02-01T08:39:41;99413.09;;;4.99;77.61
9969;BME280;5025;48.890;9.278;2023-02-01T08:42:08;99393.53;;;4.98;77.26
9969;BME280;5025;48.890;9.278;2023-02-01T08:44:52;99414.22;;;5.05;76.90
9969;BME280;5025;48.890;9.278;2023-02-01T08:47:17;99413.41;;;5.04;76.61
9969;BME280;5025;48.890;9.278;2023-02-01T08:49:43;99410.06;;;5.02;76.42
9969;BME280;5025;48.890;9.278;2023-02-01T08:52:08;99405.19;;;5.06;76.21
9969;BME280;5025;48.890;9.278;2023-02-01T08:54:33;99402.44;;;5.14;75.57
9969;BME280;5025;48.890;9.278;2023-02-01T08:56:58;99405.97;;;5.14;75.59
9969;BME280;5025;48.890;9.278;2023-02-01T08:59:24;99403.94;;;5.16;75.65
9969;BME280;5025;48.890;9.278;2023-02-01T09:01:49;99414.19;;;5.13;75.44
9969;BME280;5025;48.890;9.278;2023-02-01T09:04:14;99424.53;;;5.16;75.17
9969;BME280;5025;48.890;9.278;2023-02-01T09:06:40;99414.38;;;5.11;74.57
9969;BME280;5025;48.890;9.278;2023-02-01T09:09:06;99420.38;;;5.13;74.76
9969;BME280;5025;48.890;9.278;2023-02-01T09:11:31;99431.25;;;5.12;74.98
9969;BME280;5025;48.890;9.278;2023-02-01T09:13:57;99425.72;;;5.13;74.68
9969;BME280;5025;48.890;9.278;2023-02-01T09:16:23;99430.06;;;5.14;74.83
9969;BME280;5025;48.890;9.278;2023-02-01T09:18:48;99430.53;;;5.18;75.08
9969;BME280;5025;48.890;9.278;2023-02-01T09:21:13;99430.53;;;5.18;75.17
9969;BME280;5025;48.890;9.278;2023-02-01T09:23:38;99467.84;;;5.19;75.25
9969;BME280;5025;48.890;9.278;2023-02-01T09:26:04;99446.78;;;5.16;76.42
9969;BME280;5025;48.890;9.278;2023-02-01T09:28:30;99458.03;;;5.12;76.97
9969;BME280;5025;48.890;9.278;2023-02-01T09:30:57;99451.84;;;5.11;76.81
9969;BME280;5025;48.890;9.278;2023-02-01T09:33:24;99429.72;;;5.17;77.24
9969;BME280;5025;48.890;9.278;2023-02-01T09:35:54;99445.44;;;5.20;77.49
9969;BME280;5025;48.890;9.278;2023-02-01T09:38:19;99441.06;;;5.19;76.75
9969;BME280;5025;48.890;9.278;2023-02-01T09:40:46;99444.41;;;5.21;76.04
9969;BME280;5025;48.890;9.278;2023-02-01T09:48:38;99454.47;;;5.19;74.51
9969;BME280;5025;48.890;9.278;2023-02-01T09:51:13;99441.06;;;5.19;74.20
9969;BME280;5025;48.890;9.278;2023-02-01T09:53:45;99455.28;;;5.20;74.07
9969;BME280;5025;48.890;9.278;2023-02-01T09:56:14;99445.06;;;5.24;73.33
9969;BME280;5025;48.890;9.278;2023-02-01T09:58:54;99455.59;;;5.25;73.15
9969;BME280;5025;48.890;9.278;2023-02-01T10:01:24;99459.03;;;5.34;73.11
9969;BME280;5025;48.890;9.278;2023-02-01T10:03:58;99447.88;;;5.30;72.34
9969;BME280;5025;48.890;9.278;2023-02-01T10:22:43;99466.97;;;5.50;70.55
9969;BME280;5025;48.890;9.278;2023-02-01T10:27:38;99469.28;;;5.53;68.24
9969;BME280;5025;48.890;9.278;2023-02-01T10:30:21;99469.94;;;5.55;68.91
9969;BME280;5025;48.890;9.278;2023-02-01T10:32:49;99468.56;;;5.60;68.31
9969;BME280;5025;48.890;9.278;2023-02-01T10:35:22;99473.94;;;5.60;68.22
9969;BME280;5025;48.890;9.278;2023-02-01T10:37:48;99469.13;;;5.55;67.88
9969;BME280;5025;48.890;9.278;2023-02-01T10:40:18;99469.94;;;5.55;68.09
9969;BME280;5025;48.890;9.278;2023-02-01T10:42:47;99467.78;;;5.51;68.05
9969;BME280;5025;48.890;9.278;2023-02-01T10:45:19;99484.69;;;5.51;67.80
9969;BME280;5025;48.890;9.278;2023-02-01T10:47:47;99476.66;;;5.51;68.17
9969;BME280;5025;48.890;9.278;2023-02-01T10:50:35;99476.47;;;5.53;68.61
9969;BME280;5025;48.890;9.278;2023-02-01T10:55:39;99483.03;;;5.50;69.38
9969;BME280;5025;48.890;9.278;2023-02-01T10:58:10;99489.59;;;5.48;68.16
9969;BME280;5025;48.890;9.278;2023-02-01T11:01:01;99467.16;;;5.49;68.27
9969;BME280;5025;48.890;9.278;2023-02-01T11:06:44;99461.63;;;5.50;68.16
9969;BME280;5025;48.890;9.278;2023-02-01T11:09:20;99465.47;;;5.48;68.26
9969;BME280;5025;48.890;9.278;2023-02-01T11:19:19;99455.75;;;5.47;67.94
9969;BME280;5025;48.890;9.278;2023-02-01T11:21:49;99453.63;;;5.42;68.03
9969;BME280;5025;48.890;9.278;2023-02-01T11:26:57;99442.53;;;5.45;68.76
9969;BME280;5025;48.890;9.278;2023-02-01T11:29:24;99436.38;;;5.45;68.31
9969;BME280;5025;48.890;9.278;2023-02-01T11:31:56;99428.16;;;5.46;68.54
9969;BME280;5025;48.890;9.278;2023-02-01T11:34:26;99458.63;;;5.45;67.75
9969;BME280;5025;48.890;9.278;2023-02-01T11:36:58;99416.78;;;5.44;67.21
9969;BME280;5025;48.890;9.278;2023-02-01T11:39:29;99423.78;;;5.45;67.05
9969;BME280;5025;48.890;9.278;2023-02-01T11:42:05;99416.78;;;5.44;66.77
9969;BME280;5025;48.890;9.278;2023-02-01T11:47:18;99417.34;;;5.39;65.87
9969;BME280;5025;48.890;9.278;2023-02-01T11:49:43;99413.78;;;5.39;65.74
9969;BME280;5025;48.890;9.278;2023-02-01T12:11:42;99400.28;;;5.55;61.68
9969;BME280;5025;48.890;9.278;2023-02-01T12:14:37;99402.97;;;5.55;61.17
9969;BME280;5025;48.890;9.278;2023-02-01T12:19:55;99393.91;;;5.56;61.97
9969;BME280;5025;48.890;9.278;2023-02-01T12:30:45;99407.00;;;5.51;61.09
9969;BME280;5025;48.890;9.278;2023-02-01T12:38:55;99400.53;;;5.46;62.41
9969;BME280;5025;48.890;9.278;2023-02-01T12:42:38;99399.31;;;5.48;62.64
9969;BME280;5025;48.890;9.278;2023-02-01T12:45:06;99399.50;;;5.47;63.05
9969;BME280;5025;48.890;9.278;2023-02-01T12:47:49;99407.19;;;5.50;63.68
9969;BME280;5025;48.890;9.278;2023-02-01T12:50:21;99398.97;;;5.51;63.80
9969;BME280;5025;48.890;9.278;2023-02-01T12:52:50;99420.22;;;5.53;64.21
9969;BME280;5025;48.890;9.278;2023-02-01T12:55:21;99408.50;;;5.54;64.49
9969;BME280;5025;48.890;9.278;2023-02-01T13:00:42;99417.53;;;5.53;65.71
9969;BME280;5025;48.890;9.278;2023-02-01T13:06:12;99381.84;;;5.37;66.61
9969;BME280;5025;48.890;9.278;2023-02-01T13:08:48;99389.88;;;5.37;67.14
9969;BME280;5025;48.890;9.278;2023-02-01T13:11:28;99393.88;;;5.42;67.04
9969;BME280;5025;48.890;9.278;2023-02-01T13:16:45;99393.28;;;5.31;67.96
9969;BME280;5025;48.890;9.278;2023-02-01T13:19:28;99425.31;;;5.25;68.85
9969;BME280;5025;48.890;9.278;2023-02-01T13:22:06;99397.78;;;5.16;69.79
9969;BME280;5025;48.890;9.278;2023-02-01T13:24:43;99405.31;;;5.12;70.35
9969;BME280;5025;48.890;9.278;2023-02-01T13:27:14;99384.06;;;5.11;70.94
9969;BME280;5025;48.890;9.278;2023-02-01T13:29:55;99382.25;;;5.11;70.93
9969;BME280;5025;48.890;9.278;2023-02-01T13:40:52;99362.28;;;5.14;69.75
9969;BME280;5025;48.890;9.278;2023-02-01T13:43:26;99368.31;;;5.16;69.86
9969;BME280;5025;48.890;9.278;2023-02-01T13:45:56;99372.47;;;5.18;69.06
9969;BME280;5025;48.890;9.278;2023-02-01T13:48:28;99369.97;;;5.17;69.09
9969;BME280;5025;48.890;9.278;2023-02-01T13:50:58;99370.47;;;5.20;68.95
9969;BME280;5025;48.890;9.278;2023-02-01T13:53:28;99370.09;;;5.24;68.91
9969;BME280;5025;48.890;9.278;2023-02-01T13:56:03;99356.53;;;5.25;68.09
9969;BME280;5025;48.890;9.278;2023-02-01T13:58:39;99347.47;;;5.26;67.10
9969;BME280;5025;48.890;9.278;2023-02-01T14:03:48;99362.81;;;5.32;66.80
9969;BME280;5025;48.890;9.278;2023-02-01T14:06:17;99374.00;;;5.36;66.77
9969;BME280;5025;48.890;9.278;2023-02-01T14:08:45;99355.25;;;5.36;66.62
9969;BME280;5025;48.890;9.278;2023-02-01T14:11:35;99350.75;;;5.36;66.65
9969;BME280;5025;48.890;9.278;2023-02-01T14:16:44;99346.75;;;5.32;68.07
9969;BME280;5025;48.890;9.278;2023-02-01T14:21:54;99347.09;;;5.29;68.62
9969;BME280;5025;48.890;9.278;2023-02-01T14:24:32;99345.31;;;5.21;69.01
9969;BME280;5025;48.890;9.278;2023-02-01T14:29:40;99357.59;;;5.16;69.26
9969;BME280;5025;48.890;9.278;2023-02-01T14:32:20;99367.47;;;5.15;69.10
9969;BME280;5025;48.890;9.278;2023-02-01T14:47:51;99364.06;;;5.21;68.51
9969;BME280;5025;48.890;9.278;2023-02-01T14:55:39;99391.53;;;5.24;67.18
9969;BME280;5025;48.890;9.278;2023-02-01T14:58:13;99389.50;;;5.26;67.22
9969;BME280;5025;48.890;9.278;2023-02-01T15:00:52;99364.38;;;5.27;67.15
9969;BME280;5025;48.890;9.278;2023-02-01T15:03:43;99366.03;;;5.28;66.80
9969;BME280;5025;48.890;9.278;2023-02-01T15:06:22;99373.06;;;5.29;66.86
9969;BME280;5025;48.890;9.278;2023-02-01T15:08:48;99373.41;;;5.26;66.12
9969;BME280;5025;48.890;9.278;2023-02-01T15:11:15;99362.53;;;5.27;66.54
9969;BME280;5025;48.890;9.278;2023-02-01T15:13:48;99383.13;;;5.27;66.96
9969;BME280;5025;48.890;9.278;2023-02-01T15:16:16;99367.72;;;5.29;66.78
9969;BME280;5025;48.890;9.278;2023-02-01T15:18:41;99384.13;;;5.26;66.86
9969;BME280;5025;48.890;9.278;2023-02-01T15:21:17;99382.28;;;5.26;66.27
9969;BME280;5025;48.890;9.278;2023-02-01T15:23:43;99409.06;;;5.26;65.91
9969;BME280;5025;48.890;9.278;2023-02-01T15:26:11;99369.75;;;5.27;66.11
9969;BME280;5025;48.890;9.278;2023-02-01T15:28:36;99382.09;;;5.28;65.72
9969;BME280;5025;48.890;9.278;2023-02-01T15:31:04;99389.13;;;5.29;65.28
9969;BME280;5025;48.890;9.278;2023-02-01T15:33:30;99396.97;;;5.30;65.13
9969;BME280;5025;48.890;9.278;2023-02-01T15:36:09;99400.31;;;5.32;64.57
9969;BME280;5025;48.890;9.278;2023-02-01T15:38:41;99387.19;;;5.37;64.08
9969;BME280;5025;48.890;9.278;2023-02-01T15:41:17;99387.69;;;5.41;63.83
9969;BME280;5025;48.890;9.278;2023-02-01T15:46:15;99379.94;;;5.46;64.24
9969;BME280;5025;48.890;9.278;2023-02-01T15:48:48;99381.31;;;5.42;64.41
9969;BME280;5025;48.890;9.278;2023-02-01T15:51:20;99382.63;;;5.46;64.39
9969;BME280;5025;48.890;9.278;2023-02-01T15:53:50;99384.66;;;5.44;64.36
9969;BME280;5025;48.890;9.278;2023-02-01T15:56:21;99398.22;;;5.43;64.77
9969;BME280;5025;48.890;9.278;2023-02-01T15:58:51;99407.09;;;5.43;64.31
9969;BME280;5025;48.890;9.278;2023-02-01T16:01:18;99411.78;;;5.41;64.37
9969;BME280;5025;48.890;9.278;2023-02-01T16:03:46;99398.41;;;5.41;64.79
9969;BME280;5025;48.890;9.278;2023-02-01T16:08:54;99399.59;;;5.38;64.77
9969;BME280;5025;48.890;9.278;2023-02-01T16:11:23;99402.38;;;5.45;64.56
9969;BME280;5025;48.890;9.278;2023-02-01T16:13:49;99391.38;;;5.40;64.09
9969;BME280;5025;48.890;9.278;2023-02-01T16:16:14;99394.88;;;5.41;64.20
9969;BME280;5025;48.890;9.278;2023-02-01T16:18:40;99405.75;;;5.39;64.36
9969;BME280;5025;48.890;9.278;2023-02-01T16:21:06;99384.84;;;5.43;64.20
9969;BME280;5025;48.890;9.278;2023-02-01T16:23:34;99394.69;;;5.42;64.07
9969;BME280;5025;48.890;9.278;2023-02-01T16:25:59;99399.22;;;5.42;63.87
9969;BME280;5025;48.890;9.278;2023-02-01T16:28:24;99390.53;;;5.39;63.62